DABT

Details ICAO DABT (BLJ)
Name BATNA
Region Algeria
Timezone Africa/Algiers (UTC+1.0)
Plans Departing 20
Arriving 17
Stats Elevation 2,697 ft / 822 m (AMSL)
Location 35.752104° 6.308589°
Runways 1
Magnetic Variation 1.693° E
Sunrise 2018-05-21 04:26:54 UTC / 2018-05-21 05:26:54 Local
Sunset 2018-05-21 18:38:39 UTC / 2018-05-21 19:38:39 Local
Advertisement - Login to hide

Runways

ID Width Length Bearing (true) Bearing (mag) Surface Threshold Offset Overrun Length
05 148 ft / 45 m 9,837 ft / 2,998 m 54.80° 53.11° Asphalt 0 ft / 0 m 350 ft / 107 m
23 148 ft / 45 m 9,837 ft / 2,998 m 234.81° 233.12° Asphalt 0 ft / 0 m 375 ft / 114 m

Map

Weather


0- 5 10 15 20 25 30 35+ Temperature / ° C

Clouds and Precipitation
Forecast for 2018-05-21 06:00 UTC. Updated 3 minutes ago

Ground ~20,000 ft ~40,000 ft Winds

METAR

DABT 210300Z 36004KT 0500 FG SCT010 SCT023 13/13 Q1012

TAF

TAF AMD DABT 210310Z 2100/2124 04012KT 5000 FEW010 SCT020 PROB40 TEMPO 2100/2103 4000 -TSRA FEW020CB BKN030 TEMPO 2102/2107 VRB02KT 2000 BR BKN010 PROB40 TEMPO 2103/2106 0200 FG BECMG 2104/2106 24010KT TEMPO 2112/2121 FEW030TCU

Frequencies

Tower 118.10 MHz TWR
Tower 119.70 MHz TWR
Warning: Do not use this data for real-world aviation or navigation. No guarantee of current accuracy is given.